Time;durP1;ratioP1;P1;durP2;ratioP2;P2;SDS_P1;SDS_P2;PMS_P1;PMS_P2;Temp;Humidity;BMP_temperature;BMP_pressure;BME280_temperature;BME280_humidity;BME280_pressure;Samples;Min_cycle;Max_cycle;Signal;HPM_P1;HPM_P2
2022/06/29 00:02:25;;;;;;;3.95;2.20;;;16.20;99.90;;;;;;6221003;23;20098;-91
2022/06/29 00:04:51;;;;;;;3.38;1.80;;;16.20;99.90;;;;;;6221019;23;20055;-90
2022/06/29 00:07:17;;;;;;;3.88;2.00;;;16.20;99.90;;;;;;6195397;23;20103;-90
2022/06/29 00:09:42;;;;;;;4.10;2.05;;;16.20;99.90;;;;;;6219405;23;20020;-91
2022/06/29 00:12:08;;;;;;;3.90;2.00;;;16.20;99.90;;;;;;6195650;23;20016;-91
2022/06/29 00:14:41;;;;;;;5.03;2.40;;;16.20;99.90;;;;;;6220251;23;20349;-89
2022/06/29 00:17:11;;;;;;;5.22;2.60;;;16.20;99.90;;;;;;6194978;23;20461;-91
2022/06/29 00:19:40;;;;;;;3.70;2.08;;;16.20;99.90;;;;;;6194806;23;20024;-89
2022/06/29 00:22:07;;;;;;;4.70;2.60;;;16.10;99.90;;;;;;6219730;23;20357;-88
2022/06/29 00:24:33;;;;;;;4.70;2.03;;;16.10;99.90;;;;;;6219882;23;20090;-92
2022/06/29 00:27:00;;;;;;;3.42;1.75;;;16.10;99.90;;;;;;6194938;23;20327;-93
2022/06/29 00:29:26;;;;;;;3.50;2.00;;;16.10;99.90;;;;;;6246521;23;20020;-89
2022/06/29 00:31:52;;;;;;;4.40;2.28;;;16.00;99.90;;;;;;6219781;23;20103;-90
2022/06/29 00:34:18;;;;;;;3.70;2.08;;;16.10;99.90;;;;;;6219832;23;20449;-90
2022/06/29 00:36:44;;;;;;;4.40;2.17;;;16.00;99.90;;;;;;6246899;23;20058;-92
2022/06/29 00:39:10;;;;;;;4.57;1.92;;;16.00;99.90;;;;;;6219708;23;20048;-89
2022/06/29 00:41:43;;;;;;;3.88;2.45;;;15.90;99.90;;;;;;6219826;23;20059;-89
2022/06/29 00:44:16;;;;;;;4.18;2.10;;;15.90;99.90;;;;;;6219830;23;20024;-89
2022/06/29 00:46:47;;;;;;;4.18;2.30;;;15.90;99.90;;;;;;6194764;23;20028;-89
2022/06/29 00:49:33;;;;;;;3.50;1.98;;;15.90;99.90;;;;;;6247702;23;20346;-90
2022/06/29 00:52:13;;;;;;;5.00;2.00;;;15.90;99.90;;;;;;6219431;23;20016;-87
2022/06/29 00:54:42;;;;;;;5.30;2.28;;;15.80;99.90;;;;;;6219528;23;20019;-89
2022/06/29 00:57:19;;;;;;;4.70;2.17;;;15.80;99.90;;;;;;6219426;23;20024;-88
2022/06/29 00:59:48;;;;;;;3.22;1.90;;;15.80;99.90;;;;;;6246805;23;20035;-88
2022/06/29 01:02:16;;;;;;;3.85;2.30;;;15.80;99.90;;;;;;6219642;23;20433;-91
2022/06/29 01:04:44;;;;;;;4.47;2.28;;;15.70;99.90;;;;;;6219639;23;20051;-88
2022/06/29 01:07:15;;;;;;;5.40;2.10;;;15.70;99.90;;;;;;6194530;23;20051;-88
2022/06/29 01:09:42;;;;;;;4.20;2.20;;;15.70;99.90;;;;;;6194381;23;20055;-88
2022/06/29 01:12:09;;;;;;;4.60;2.45;;;15.60;99.90;;;;;;6194442;23;20091;-88
2022/06/29 01:14:34;;;;;;;3.63;2.15;;;15.60;99.90;;;;;;6219451;23;20016;-88
2022/06/29 01:17:00;;;;;;;5.18;2.38;;;15.60;99.90;;;;;;6219191;23;20322;-88
2022/06/29 01:19:26;;;;;;;3.83;1.98;;;15.60;99.90;;;;;;6219369;23;20082;-89
2022/06/29 01:21:53;;;;;;;5.00;2.90;;;15.60;99.90;;;;;;6194466;23;20016;-89
2022/06/29 01:24:21;;;;;;;4.18;2.50;;;15.60;99.90;;;;;;6194228;23;20035;-90
2022/06/29 01:26:47;;;;;;;4.30;2.10;;;15.60;99.90;;;;;;6193949;23;20392;-89
2022/06/29 01:29:14;;;;;;;4.55;2.40;;;15.60;99.90;;;;;;6246315;23;20016;-91
2022/06/29 01:31:40;;;;;;;4.18;2.42;;;15.60;99.90;;;;;;6246089;23;20086;-87
2022/06/29 01:34:06;;;;;;;3.92;2.20;;;15.60;99.90;;;;;;6219180;23;20481;-88
2022/06/29 01:36:32;;;;;;;5.32;2.50;;;15.60;99.90;;;;;;6219199;23;20016;-87
2022/06/29 01:38:57;;;;;;;4.88;2.53;;;15.60;99.90;;;;;;6193988;23;20048;-88
2022/06/29 01:41:23;;;;;;;5.20;2.78;;;15.60;99.90;;;;;;6194246;23;20027;-90
2022/06/29 01:43:49;;;;;;;4.20;2.38;;;15.70;99.90;;;;;;6245890;23;20048;-89
2022/06/29 01:46:14;;;;;;;4.28;2.60;;;15.60;99.90;;;;;;6246121;23;20363;-89
2022/06/29 01:48:40;;;;;;;4.25;2.60;;;15.70;99.90;;;;;;6194250;23;20012;-88
2022/06/29 01:51:06;;;;;;;5.25;2.55;;;15.70;99.90;;;;;;6219252;23;20020;-89
2022/06/29 01:53:31;;;;;;;4.38;2.65;;;15.70;99.90;;;;;;6219183;23;20334;-90
2022/06/29 01:55:58;;;;;;;4.13;2.50;;;15.70;99.90;;;;;;6219616;23;20023;-89
2022/06/29 01:58:53;;;;;;;4.45;2.78;;;15.70;99.90;;;;;;6193884;23;20086;-88
2022/06/29 02:01:18;;;;;;;5.63;2.75;;;15.70;99.90;;;;;;6219146;23;20020;-88
2022/06/29 02:03:44;;;;;;;5.03;2.70;;;15.70;99.90;;;;;;6194045;23;20047;-87
2022/06/29 02:06:11;;;;;;;5.35;2.85;;;15.70;99.90;;;;;;6194076;23;20286;-86
2022/06/29 02:08:36;;;;;;;;;;;15.70;99.90;;;;;;6194611;23;20020;-87
2022/06/29 02:11:02;;;;;;;4.72;2.78;;;15.70;99.90;;;;;;6245675;23;20248;-87
2022/06/29 02:13:28;;;;;;;5.18;3.08;;;15.70;99.90;;;;;;6219116;23;20016;-88
2022/06/29 02:16:14;;;;;;;5.40;3.60;;;15.70;99.90;;;;;;6219510;23;20012;-88
2022/06/29 02:19:00;;;;;;;6.50;3.05;;;15.70;99.90;;;;;;6193960;23;20016;-87
2022/06/29 02:21:25;;;;;;;6.25;3.45;;;15.70;99.90;;;;;;6193677;23;20016;-87
2022/06/29 02:23:52;;;;;;;5.28;3.50;;;15.70;99.90;;;;;;6194315;23;20031;-90
2022/06/29 02:26:18;;;;;;;5.20;3.25;;;15.60;99.90;;;;;;6194267;23;20016;-89
2022/06/29 02:28:43;;;;;;;5.43;3.25;;;15.70;99.90;;;;;;6193982;23;20055;-90
2022/06/29 02:36:37;;;;;;;6.28;3.53;;;15.70;99.90;;;;;;6189205;23;20056;-88
2022/06/29 02:39:03;;;;;;;5.90;3.20;;;15.70;99.90;;;;;;6191015;23;20013;-89
2022/06/29 02:41:29;;;;;;;6.40;3.33;;;15.70;99.90;;;;;;6190925;23;20020;-90
2022/06/29 02:43:55;;;;;;;5.35;3.58;;;15.70;99.90;;;;;;6166303;23;20020;-91
2022/06/29 02:46:21;;;;;;;6.07;3.35;;;15.70;99.90;;;;;;6191021;23;20086;-90
2022/06/29 02:48:46;;;;;;;6.18;3.90;;;15.70;99.90;;;;;;6166667;23;20442;-90
2022/06/29 02:51:12;;;;;;;6.00;3.40;;;15.70;99.90;;;;;;6166516;23;20017;-92
2022/06/29 02:53:40;;;;;;;6.25;3.55;;;15.70;99.90;;;;;;6166229;23;20032;-91
2022/06/29 02:56:06;;;;;;;5.70;3.83;;;15.70;99.90;;;;;;6166761;23;20017;-91
2022/06/29 02:58:32;;;;;;;7.40;4.00;;;15.70;99.90;;;;;;6191042;23;20095;-90
2022/06/29 03:01:07;;;;;;;5.38;3.30;;;15.70;99.90;;;;;;6192019;23;20016;-90
2022/06/29 03:03:32;;;;;;;9.02;4.15;;;15.70;99.90;;;;;;6166409;23;20090;-96
2022/06/29 03:06:17;;;;;;;6.78;3.90;;;15.70;99.90;;;;;;6166333;23;20450;-93
2022/06/29 03:08:43;;;;;;;5.63;3.30;;;15.70;99.90;;;;;;6190768;23;20498;-91
2022/06/29 03:11:08;;;;;;;6.18;3.65;;;15.70;99.90;;;;;;6165644;23;20021;-90
2022/06/29 03:13:34;;;;;;;6.87;3.73;;;15.70;99.90;;;;;;6165876;23;20458;-89
2022/06/29 03:15:59;;;;;;;6.53;3.63;;;15.70;99.90;;;;;;6165869;23;20268;-91
2022/06/29 03:18:26;;;;;;;7.38;3.90;;;15.70;99.90;;;;;;6217608;23;20016;-90
2022/06/29 03:20:52;;;;;;;5.85;3.67;;;15.60;99.90;;;;;;6190971;23;20399;-90
2022/06/29 03:23:49;;;;;;;6.30;3.70;;;15.60;99.90;;;;;;6153843;23;20052;-94
2022/06/29 03:26:30;;;;;;;7.18;4.32;;;15.60;99.90;;;;;;6169180;23;20019;-87
2022/06/29 03:28:56;;;;;;;7.60;3.95;;;15.60;99.90;;;;;;6234278;23;20025;-90
2022/06/29 03:31:23;;;;;;;5.68;3.97;;;15.50;99.90;;;;;;6220587;23;20016;-90
2022/06/29 03:33:49;;;;;;;5.05;3.65;;;15.50;99.90;;;;;;6232150;23;20020;-91
2022/06/29 03:36:16;;;;;;;6.28;3.90;;;15.50;99.90;;;;;;6231794;23;20012;-96
2022/06/29 03:38:41;;;;;;;6.13;3.67;;;15.40;99.90;;;;;;6223674;23;20116;-92
2022/06/29 03:41:22;;;;;;;7.43;3.92;;;15.40;99.90;;;;;;6197299;23;20028;-95
2022/06/29 03:43:48;;;;;;;6.47;3.67;;;15.40;99.90;;;;;;6197105;23;20016;-95
2022/06/29 03:46:14;;;;;;;6.35;3.90;;;15.30;99.90;;;;;;6202838;23;20098;-90
2022/06/29 03:48:41;;;;;;;6.43;4.03;;;15.30;99.90;;;;;;6203378;23;20019;-96
2022/06/29 03:51:08;;;;;;;6.05;3.92;;;15.30;99.90;;;;;;6178552;23;20016;-96
2022/06/29 03:53:34;;;;;;;6.85;4.10;;;15.30;99.90;;;;;;6227569;23;20513;-96
2022/06/29 03:56:00;;;;;;;5.95;3.67;;;15.30;99.90;;;;;;6227691;23;20067;-91
2022/06/29 03:58:26;;;;;;;6.28;4.10;;;15.20;99.90;;;;;;6224729;23;20546;-88
2022/06/29 04:00:52;;;;;;;7.03;4.32;;;15.30;99.90;;;;;;6223965;23;20008;-94
2022/06/29 04:03:17;;;;;;;6.65;4.43;;;15.30;99.90;;;;;;6200017;23;20047;-94
2022/06/29 04:05:52;;;;;;;7.13;4.20;;;15.30;99.90;;;;;;6250402;23;20027;-95
2022/06/29 04:08:18;;;;;;;7.18;4.38;;;15.30;99.90;;;;;;6196587;23;20016;-93
2022/06/29 04:10:44;;;;;;;6.45;4.10;;;15.30;99.90;;;;;;6223834;23;20020;-95
2022/06/29 04:13:09;;;;;;;6.90;4.60;;;15.30;99.90;;;;;;6208299;23;20420;-87
2022/06/29 04:15:35;;;;;;;6.93;4.70;;;15.30;99.90;;;;;;6237521;23;20240;-86
2022/06/29 04:18:02;;;;;;;6.90;4.35;;;15.30;99.90;;;;;;6198940;23;20508;-91
2022/06/29 04:24:03;;;;;;;6.78;4.18;;;15.40;99.90;;;;;;6246753;23;20533;-87
2022/06/29 04:26:29;;;;;;;6.68;3.88;;;15.40;99.90;;;;;;6169058;23;20024;-91
2022/06/29 04:28:55;;;;;;;8.70;5.57;;;15.40;99.90;;;;;;6193857;23;20012;-88
2022/06/29 04:31:20;;;;;;;7.25;4.88;;;15.40;99.90;;;;;;6182867;23;20027;-89
2022/06/29 04:33:46;;;;;;;6.90;4.55;;;15.50;99.90;;;;;;6165111;23;20167;-88
2022/06/29 04:36:12;;;;;;;6.07;4.30;;;15.50;99.90;;;;;;6164730;23;20016;-88
2022/06/29 04:38:38;;;;;;;6.88;4.55;;;15.50;99.90;;;;;;6164846;23;20252;-89
2022/06/29 04:41:28;;;;;;;7.37;5.00;;;15.50;99.90;;;;;;6217075;23;20333;-87
2022/06/29 04:43:54;;;;;;;6.57;4.38;;;15.60;99.90;;;;;;6164390;23;20605;-87
2022/06/29 04:46:20;;;;;;;7.25;4.63;;;15.60;99.90;;;;;;6216011;23;20016;-87
2022/06/29 04:48:51;;;;;;;7.03;4.88;;;15.70;99.90;;;;;;6189487;23;20083;-87
2022/06/29 04:51:17;;;;;;;7.45;4.65;;;15.70;99.90;;;;;;6189765;23;20016;-86
2022/06/29 04:53:45;;;;;;;6.47;4.72;;;15.70;99.90;;;;;;6216181;23;20353;-87
2022/06/29 04:56:41;;;;;;;7.55;4.78;;;15.80;99.90;;;;;;6190022;23;20019;-88
2022/06/29 04:59:53;;;;;;;7.68;5.22;;;15.80;99.90;;;;;;6165067;23;20091;-89
2022/06/29 05:02:19;;;;;;;8.85;5.32;;;15.90;99.90;;;;;;6163670;23;20020;-89
2022/06/29 05:04:45;;;;;;;7.07;4.70;;;15.90;99.90;;;;;;6165048;23;20020;-90
2022/06/29 05:07:10;;;;;;;7.57;4.95;;;15.90;99.90;;;;;;6189865;23;20048;-89
2022/06/29 05:09:55;;;;;;;7.88;5.18;;;15.90;99.90;;;;;;6187205;23;20031;-89
2022/06/29 05:12:39;;;;;;;6.93;4.82;;;15.90;99.90;;;;;;6164658;23;20102;-89
2022/06/29 05:15:07;;;;;;;7.78;5.15;;;15.90;99.90;;;;;;6189113;23;20068;-89
2022/06/29 05:17:36;;;;;;;7.90;5.15;;;15.90;99.90;;;;;;6164646;23;20020;-89
2022/06/29 05:20:09;;;;;;;6.88;5.22;;;16.00;99.90;;;;;;6189814;23;20020;-94
2022/06/29 05:22:35;;;;;;;6.68;4.72;;;16.00;99.90;;;;;;6189756;23;20074;-91
2022/06/29 05:25:01;;;;;;;11.98;5.35;;;16.00;99.90;;;;;;6164392;23;20023;-91
2022/06/29 05:27:27;;;;;;;8.05;4.95;;;16.10;99.90;;;;;;6189290;23;20438;-92
2022/06/29 05:29:53;;;;;;;6.53;4.68;;;16.10;99.90;;;;;;6164509;23;20065;-87
2022/06/29 05:32:19;;;;;;;7.30;4.90;;;16.20;99.90;;;;;;6212758;23;20099;-87
2022/06/29 05:34:44;;;;;;;6.60;4.32;;;16.20;99.90;;;;;;6219058;23;20091;-87
2022/06/29 05:37:10;;;;;;;6.93;4.40;;;16.20;99.90;;;;;;6219297;23;20016;-86
2022/06/29 05:39:36;;;;;;;7.00;4.80;;;16.30;99.90;;;;;;6218848;23;20063;-85
2022/06/29 05:42:02;;;;;;;9.27;5.47;;;16.30;99.90;;;;;;6193640;23;20098;-89
2022/06/29 05:44:27;;;;;;;6.70;4.72;;;16.30;99.90;;;;;;6245395;23;20270;-88
2022/06/29 05:46:53;;;;;;;6.88;4.82;;;16.40;99.90;;;;;;6194003;23;20058;-87
2022/06/29 05:49:19;;;;;;;5.93;4.22;;;16.40;99.90;;;;;;6218815;23;20026;-87
2022/06/29 05:51:44;;;;;;;9.10;4.82;;;16.50;99.90;;;;;;6217887;23;20042;-86
2022/06/29 05:54:10;;;;;;;7.10;4.38;;;16.50;99.90;;;;;;6241829;23;20047;-87
2022/06/29 05:56:36;;;;;;;6.85;4.47;;;16.60;99.90;;;;;;6215547;23;20399;-91
2022/06/29 05:59:02;;;;;;;6.78;4.85;;;16.70;99.90;;;;;;6243176;23;20016;-90
2022/06/29 06:01:28;;;;;;;7.07;4.78;;;16.80;99.90;;;;;;6244404;23;20059;-88
2022/06/29 06:03:53;;;;;;;6.63;4.47;;;16.80;99.90;;;;;;6244557;23;20016;-88
2022/06/29 06:06:20;;;;;;;6.57;4.50;;;16.90;99.90;;;;;;6217887;23;20020;-88
2022/06/29 06:08:45;;;;;;;6.38;4.47;;;17.00;99.90;;;;;;6244734;23;20398;-88
2022/06/29 06:11:11;;;;;;;6.28;4.35;;;17.10;99.90;;;;;;6219584;23;20078;-88
2022/06/29 06:16:12;;;;;;;5.95;4.03;;;17.40;99.90;;;;;;6249560;22;20512;-86
2022/06/29 06:18:39;;;;;;;6.97;4.57;;;17.50;99.90;;;;;;6222868;23;20020;-89
2022/06/29 06:21:04;;;;;;;7.00;4.57;;;17.70;99.90;;;;;;6197700;23;20091;-89
2022/06/29 06:23:30;;;;;;;5.55;3.65;;;17.90;99.90;;;;;;6197218;23;20058;-86
2022/06/29 06:25:56;;;;;;;6.35;4.13;;;18.10;99.90;;;;;;6197884;23;20019;-89
2022/06/29 06:28:22;;;;;;;6.85;3.83;;;18.60;99.90;;;;;;6197736;23;20377;-89
2022/06/29 06:30:47;;;;;;;7.30;4.18;;;19.20;99.90;;;;;;6197560;23;20340;-89
2022/06/29 06:33:13;;;;;;;5.25;3.47;;;19.60;99.90;;;;;;6197792;23;20015;-92
2022/06/29 06:35:39;;;;;;;5.60;3.63;;;19.70;99.90;;;;;;6197908;23;20019;-88
2022/06/29 06:38:04;;;;;;;6.07;3.67;;;19.70;99.90;;;;;;6222844;23;20023;-90
2022/06/29 06:43:15;;;;;;;5.75;3.20;;;19.70;99.90;;;;;;6247964;23;20027;-91
2022/06/29 06:45:42;;;;;;;5.45;3.45;;;19.80;99.90;;;;;;6222707;23;20016;-92
2022/06/29 06:48:08;;;;;;;5.10;3.40;;;19.80;99.90;;;;;;6222946;23;20095;-91
2022/06/29 06:50:34;;;;;;;4.95;3.05;;;19.90;99.90;;;;;;6222850;23;20020;-90
2022/06/29 06:52:59;;;;;;;5.65;2.95;;;20.10;99.90;;;;;;6222927;23;20011;-92
2022/06/29 06:55:25;;;;;;;4.53;2.97;;;20.20;99.90;;;;;;6198163;23;20020;-92
2022/06/29 06:57:51;;;;;;;4.55;2.92;;;20.30;99.90;;;;;;6200793;23;20019;-87
2022/06/29 07:00:16;;;;;;;4.25;2.65;;;20.30;99.90;;;;;;6240318;23;20016;-89
2022/06/29 07:02:42;;;;;;;5.05;3.05;;;20.40;99.90;;;;;;6227061;23;20016;-90
2022/06/29 07:05:08;;;;;;;4.35;2.47;;;20.40;99.90;;;;;;6197575;23;20108;-89
2022/06/29 07:07:34;;;;;;;3.90;2.42;;;20.60;99.90;;;;;;6197517;23;20024;-89
2022/06/29 07:10:00;;;;;;;3.40;2.00;;;21.00;99.90;;;;;;6222530;23;20016;-91
2022/06/29 07:12:26;;;;;;;4.35;2.42;;;21.30;99.90;;;;;;6197418;23;20133;-92
2022/06/29 07:14:52;;;;;;;3.22;2.08;;;21.50;99.90;;;;;;6222602;23;20342;-92
2022/06/29 07:17:18;;;;;;;3.55;2.00;;;21.60;99.90;;;;;;6222501;23;20405;-92
2022/06/29 07:19:43;;;;;;;3.03;1.70;;;21.80;99.90;;;;;;6223070;23;20016;-91
2022/06/29 07:22:09;;;;;;;3.65;1.70;;;22.00;99.90;;;;;;6249489;23;20024;-91
2022/06/29 07:24:35;;;;;;;3.92;1.80;;;22.40;99.90;;;;;;6195673;23;20020;-93
2022/06/29 07:27:01;;;;;;;3.22;1.70;;;22.70;99.90;;;;;;6220681;23;20027;-91
2022/06/29 07:29:27;;;;;;;3.20;1.80;;;22.70;99.90;;;;;;6247822;23;20035;-90
2022/06/29 07:31:52;;;;;;;2.50;1.52;;;22.70;99.90;;;;;;6196062;23;20345;-92
2022/06/29 07:34:18;;;;;;;2.72;1.48;;;22.60;99.90;;;;;;6201583;23;20043;-89
2022/06/29 07:36:44;;;;;;;2.35;1.40;;;22.60;99.90;;;;;;6236137;23;20020;-88
2022/06/29 07:39:10;;;;;;;2.85;1.35;;;22.60;99.90;;;;;;6199544;23;20019;-91
2022/06/29 07:41:38;;;;;;;3.45;1.58;;;22.60;99.90;;;;;;6196021;23;20027;-89
2022/06/29 07:44:05;;;;;;;2.13;1.20;;;22.50;99.90;;;;;;6195687;23;20020;-89
2022/06/29 07:46:31;;;;;;;2.25;1.10;;;22.40;99.90;;;;;;6220686;23;20404;-90
2022/06/29 07:48:57;;;;;;;2.47;1.15;;;22.30;99.90;;;;;;6246233;23;20016;-92
2022/06/29 07:51:22;;;;;;;1.83;1.08;;;22.30;99.90;;;;;;6195658;23;20091;-89
2022/06/29 07:53:48;;;;;;;2.58;0.98;;;22.20;99.90;;;;;;6195497;23;20050;-92
2022/06/29 07:56:14;;;;;;;1.83;0.93;;;22.10;99.90;;;;;;6220862;23;20099;-93
2022/06/29 07:58:39;;;;;;;2.58;0.90;;;22.10;99.90;;;;;;6220888;23;20023;-90
2022/06/29 08:01:05;;;;;;;1.33;0.80;;;22.00;99.90;;;;;;6220727;23;20068;-92
2022/06/29 08:03:31;;;;;;;1.33;0.77;;;22.00;99.90;;;;;;6220314;23;20023;-90
2022/06/29 08:05:58;;;;;;;3.35;0.90;;;22.00;99.90;;;;;;6195715;23;20016;-92
2022/06/29 08:08:24;;;;;;;2.03;0.80;;;22.00;99.90;;;;;;6220565;23;20008;-91
2022/06/29 08:10:50;;;;;;;1.40;0.73;;;22.00;99.90;;;;;;6220933;23;20024;-91
2022/06/29 08:13:16;;;;;;;3.08;1.15;;;21.90;99.90;;;;;;6220556;23;20122;-92
2022/06/29 08:15:45;;;;;;;2.33;1.10;;;21.90;99.90;;;;;;6195107;23;20341;-90
2022/06/29 08:18:15;;;;;;;2.42;0.90;;;21.90;99.90;;;;;;6220456;23;20100;-89
2022/06/29 08:20:41;;;;;;;2.78;1.15;;;21.90;99.90;;;;;;6220433;23;20099;-92
2022/06/29 08:23:07;;;;;;;1.45;0.77;;;21.90;99.90;;;;;;6221779;23;20023;-94
2022/06/29 08:28:08;;;;;;;1.83;0.98;;;21.90;99.90;;;;;;6227319;22;20024;-90
2022/06/29 08:44:05;;;;;;;2.58;1.25;;;22.30;99.90;;;;;;6214963;22;20028;-86
2022/06/29 08:46:58;;;;;;;2.30;0.90;;;22.20;99.90;;;;;;6194629;23;20019;-87
2022/06/29 08:49:25;;;;;;;1.80;0.77;;;22.20;99.90;;;;;;6194442;23;20043;-88
2022/06/29 08:51:52;;;;;;;3.25;0.82;;;22.20;99.90;;;;;;6246227;23;20451;-88
2022/06/29 08:54:20;;;;;;;4.00;1.02;;;22.20;99.90;;;;;;6219090;23;20020;-89
2022/06/29 08:56:48;;;;;;;1.90;0.88;;;22.20;99.90;;;;;;6194268;23;20016;-88
2022/06/29 08:59:15;;;;;;;1.55;0.77;;;22.30;99.90;;;;;;6194239;23;20103;-89
2022/06/29 09:01:41;;;;;;;1.40;0.90;;;22.30;99.90;;;;;;6194468;23;20095;-90
2022/06/29 09:04:07;;;;;;;3.53;1.20;;;22.40;99.90;;;;;;6219025;23;20025;-88
2022/06/29 09:06:33;;;;;;;2.05;1.10;;;22.50;99.90;;;;;;6219429;23;20012;-87
2022/06/29 09:08:59;;;;;;;;;;;22.50;99.90;;;;;;6194679;23;20023;-89
2022/06/29 09:11:29;;;;;;;2.58;0.95;;;22.50;99.90;;;;;;6270112;22;20249;-89
2022/06/29 09:14:12;;;;;;;2.67;0.98;;;22.50;99.90;;;;;;6219093;23;20107;-88
2022/06/29 09:16:52;;;;;;;2.13;1.00;;;22.50;99.90;;;;;;6219094;23;20024;-88
2022/06/29 09:19:23;;;;;;;2.00;1.00;;;22.50;99.90;;;;;;6219150;23;20339;-89
2022/06/29 09:21:54;;;;;;;3.75;0.75;;;22.50;99.90;;;;;;6194139;23;20024;-87
2022/06/29 09:24:25;;;;;;;1.45;0.77;;;22.50;99.90;;;;;;6218976;23;20105;-86
2022/06/29 09:26:56;;;;;;;1.80;0.82;;;22.60;99.90;;;;;;6219083;23;20023;-88
2022/06/29 09:29:26;;;;;;;1.90;0.90;;;22.60;99.90;;;;;;6218907;23;20012;-87
2022/06/29 09:32:09;;;;;;;2.78;1.10;;;22.70;99.90;;;;;;6246054;23;20016;-90
2022/06/29 09:34:36;;;;;;;2.47;0.80;;;22.70;99.90;;;;;;6219078;23;20051;-86
2022/06/29 09:37:04;;;;;;;1.17;0.70;;;22.80;99.90;;;;;;6193789;23;20048;-88
2022/06/29 09:39:40;;;;;;;2.45;0.90;;;22.90;99.90;;;;;;6218858;23;20095;-87
2022/06/29 09:42:09;;;;;;;1.48;0.85;;;22.90;99.90;;;;;;6245200;23;20024;-87
2022/06/29 09:44:35;;;;;;;1.60;0.90;;;22.90;99.90;;;;;;6218477;23;20517;-88
2022/06/29 09:47:08;;;;;;;1.75;0.90;;;22.90;99.90;;;;;;6193421;23;20058;-87
2022/06/29 09:49:35;;;;;;;3.00;1.10;;;23.00;99.90;;;;;;6245792;23;20019;-90
2022/06/29 09:52:03;;;;;;;2.13;0.90;;;23.00;99.90;;;;;;6245773;23;20122;-88
2022/06/29 09:54:37;;;;;;;2.05;1.00;;;23.00;99.90;;;;;;6218690;23;20047;-87
2022/06/29 09:57:04;;;;;;;1.65;1.02;;;23.00;99.90;;;;;;6218873;23;20402;-89
2022/06/29 10:03:30;;;;;;;2.15;1.00;;;23.10;99.90;;;;;;6227865;23;20020;-92
2022/06/29 10:06:04;;;;;;;3.05;0.90;;;23.20;99.90;;;;;;6160341;23;20481;-95
2022/06/29 10:08:32;;;;;;;2.58;1.30;;;23.20;99.90;;;;;;6163379;23;20012;-92
2022/06/29 10:13:39;;;;;;;2.00;0.90;;;23.20;99.90;;;;;;6163248;23;20031;-95
2022/06/29 10:13:58;;;;;;;1.92;1.10;;;23.20;99.90;;;;;;6189768;23;20066;-93
2022/06/29 10:16:50;;;;;;;2.67;0.98;;;23.30;99.90;;;;;;6187272;23;20012;-94
2022/06/29 10:23:34;;;;;;;1.52;0.80;;;23.30;99.90;;;;;;6216691;23;20036;-95
2022/06/29 10:26:03;;;;;;;1.85;0.93;;;23.30;99.90;;;;;;6164535;23;20013;-96
2022/06/29 10:28:29;;;;;;;2.25;1.00;;;23.30;99.90;;;;;;6163762;23;20013;-96
2022/06/29 10:30:55;;;;;;;2.03;0.98;;;23.30;99.90;;;;;;6164599;23;20477;-94
2022/06/29 10:33:35;;;;;;;2.30;1.10;;;23.40;99.90;;;;;;6165440;23;20012;-96
2022/06/29 10:36:06;;;;;;;1.70;0.88;;;23.40;99.90;;;;;;6165467;23;20354;-96
2022/06/29 10:39:14;;;;;;;2.13;1.00;;;23.50;99.90;;;;;;6165867;23;20019;-95
2022/06/29 10:44:59;;;;;;;2.65;1.05;;;23.70;99.90;;;;;;6215342;23;20021;-96
2022/06/29 10:47:25;;;;;;;1.88;0.82;;;23.70;99.90;;;;;;6165131;23;20024;-95
2022/06/29 10:50:20;;;;;;;2.75;1.15;;;23.70;99.90;;;;;;6165026;23;20020;-95
2022/06/29 10:52:52;;;;;;;2.25;1.05;;;23.80;99.90;;;;;;6164457;23;20024;-95
2022/06/29 10:55:19;;;;;;;2.72;1.27;;;23.80;99.90;;;;;;6164681;23;20024;-93
2022/06/29 10:57:54;;;;;;;1.55;0.90;;;23.90;99.90;;;;;;6164883;23;20330;-93
2022/06/29 11:00:53;;;;;;;1.58;0.90;;;23.90;99.90;;;;;;6165752;23;20103;-93
2022/06/29 11:03:25;;;;;;;2.78;1.00;;;24.10;99.90;;;;;;6166121;23;20446;-94
2022/06/29 11:12:02;;;;;;;1.80;0.90;;;24.20;99.90;;;;;;6146809;23;20017;-93
2022/06/29 11:19:47;;;;;;;1.48;0.85;;;24.00;99.90;;;;;;6228873;22;20035;-96
2022/06/29 11:22:15;;;;;;;;;;;24.00;99.90;;;;;;6202828;23;20099;-96
2022/06/29 11:29:52;;;;;;;1.30;0.80;;;24.20;99.90;;;;;;6218095;22;20016;-96
2022/06/29 11:32:39;;;;;;;;;;;24.40;99.90;;;;;;6172271;23;20088;-96
2022/06/29 11:35:06;;;;;;;1.50;0.88;;;24.60;99.90;;;;;;6215833;23;19962;-92
2022/06/29 11:37:32;;;;;;;1.52;0.80;;;25.00;99.90;;;;;;6192409;23;20019;-95
2022/06/29 11:39:58;;;;;;;;;;;25.10;99.90;;;;;;6178558;23;20016;-93
2022/06/29 11:45:18;;;;;;;1.20;0.70;;;25.50;99.90;;;;;;6200711;23;20027;-96
2022/06/29 11:51:50;;;;;;;2.38;0.77;;;25.90;99.30;;;;;;6217771;23;20016;-91
2022/06/29 11:54:16;;;;;;;2.47;0.80;;;26.10;98.50;;;;;;6165924;23;20019;-91
2022/06/29 11:56:43;;;;;;;1.73;0.88;;;26.10;98.60;;;;;;6190952;23;20012;-92
2022/06/29 11:59:15;;;;;;;1.52;0.70;;;26.20;98.00;;;;;;6165933;23;20028;-93
2022/06/29 12:01:59;;;;;;;1.98;1.00;;;26.30;97.80;;;;;;6190596;23;20019;-89
2022/06/29 12:04:34;;;;;;;1.02;0.70;;;26.40;97.50;;;;;;6217176;23;20056;-90
2022/06/29 12:07:20;;;;;;;2.00;0.90;;;26.50;96.70;;;;;;6216920;23;20016;-93
2022/06/29 12:09:46;;;;;;;1.85;0.88;;;26.50;96.40;;;;;;6190534;23;20020;-88
2022/06/29 12:12:13;;;;;;;2.50;1.30;;;26.50;96.20;;;;;;6191010;23;20017;-95
2022/06/29 12:14:40;;;;;;;2.38;1.10;;;26.70;96.10;;;;;;6190633;23;20023;-89
2022/06/29 12:19:42;;;;;;;2.83;1.00;;;26.80;95.50;;;;;;6246459;22;20074;-87
2022/06/29 12:22:08;;;;;;;2.22;1.10;;;26.90;95.20;;;;;;6220279;23;20024;-87
2022/06/29 12:24:34;;;;;;;2.55;1.10;;;26.90;95.10;;;;;;6195142;23;20027;-88
2022/06/29 12:27:00;;;;;;;2.85;1.48;;;27.00;95.10;;;;;;6220308;23;20350;-92
2022/06/29 12:29:26;;;;;;;2.30;1.00;;;27.00;94.40;;;;;;6195127;23;20062;-87
2022/06/29 12:31:52;;;;;;;2.15;1.20;;;27.00;94.10;;;;;;6220322;23;20008;-91
2022/06/29 12:34:17;;;;;;;2.72;1.15;;;26.90;94.00;;;;;;6220248;23;20429;-92
2022/06/29 12:36:43;;;;;;;2.90;1.38;;;26.80;93.80;;;;;;6195593;23;20013;-90
2022/06/29 12:39:09;;;;;;;1.80;0.93;;;26.80;93.20;;;;;;6220350;23;20055;-90
2022/06/29 12:41:36;;;;;;;2.70;1.20;;;26.80;93.00;;;;;;6220046;23;20091;-91
2022/06/29 12:44:03;;;;;;;4.25;1.55;;;26.90;92.70;;;;;;6220211;23;20023;-89
2022/06/29 12:46:30;;;;;;;2.25;1.20;;;26.90;92.90;;;;;;6222837;23;20098;-89
2022/06/29 12:48:56;;;;;;;2.58;1.17;;;26.70;92.50;;;;;;6201013;23;20051;-89
2022/06/29 12:51:23;;;;;;;1.73;1.02;;;26.50;92.00;;;;;;6220706;23;20024;-92
2022/06/29 12:53:49;;;;;;;2.42;1.30;;;26.30;92.10;;;;;;6196972;23;20016;-89
2022/06/29 12:56:23;;;;;;;2.35;1.20;;;26.10;92.80;;;;;;6230251;23;20360;-85
2022/06/29 12:58:48;;;;;;;2.33;1.45;;;26.10;93.20;;;;;;6221592;23;20570;-91
2022/06/29 13:01:14;;;;;;;2.55;1.48;;;26.10;93.50;;;;;;6196639;23;20012;-92
2022/06/29 13:03:40;;;;;;;2.65;1.23;;;26.30;93.60;;;;;;6220285;23;20042;-92
2022/06/29 13:06:06;;;;;;;3.05;1.52;;;26.50;93.80;;;;;;6220904;23;20020;-85
2022/06/29 13:08:32;;;;;;;2.88;1.50;;;26.60;93.90;;;;;;6219784;23;20051;-87
2022/06/29 13:10:59;;;;;;;3.13;1.73;;;26.70;93.90;;;;;;6219863;23;20016;-87
2022/06/29 13:13:26;;;;;;;3.75;1.63;;;26.80;93.80;;;;;;6223299;23;20361;-88
2022/06/29 13:15:52;;;;;;;3.78;1.92;;;27.00;93.70;;;;;;6255779;23;20019;-89
2022/06/29 13:18:18;;;;;;;3.35;1.88;;;27.10;93.40;;;;;;6220219;23;20024;-88
2022/06/29 13:20:44;;;;;;;2.78;1.60;;;27.20;93.50;;;;;;6246270;23;20027;-91
2022/06/29 13:23:10;;;;;;;3.72;1.70;;;27.30;93.30;;;;;;6218830;23;20461;-89
2022/06/29 13:25:36;;;;;;;4.05;1.85;;;27.30;92.90;;;;;;6219444;23;20024;-88
2022/06/29 13:28:02;;;;;;;3.85;1.63;;;27.10;92.70;;;;;;6194510;23;20464;-88
2022/06/29 13:30:28;;;;;;;3.22;1.80;;;27.10;93.10;;;;;;6194808;23;20016;-92
2022/06/29 13:32:54;;;;;;;3.47;2.10;;;27.10;93.40;;;;;;6220076;23;20091;-90
2022/06/29 13:35:20;;;;;;;3.83;1.75;;;27.10;93.30;;;;;;6193217;23;20055;-90
2022/06/29 13:37:46;;;;;;;4.05;2.30;;;27.10;93.10;;;;;;6194577;23;20103;-88
2022/06/29 13:40:13;;;;;;;5.57;2.10;;;27.10;92.80;;;;;;6219475;23;20472;-90
2022/06/29 13:42:39;;;;;;;3.15;1.95;;;27.10;92.80;;;;;;6219622;23;20031;-90
2022/06/29 13:45:06;;;;;;;4.03;2.13;;;27.10;93.20;;;;;;6193624;23;20093;-90
2022/06/29 13:47:32;;;;;;;4.00;2.15;;;27.10;93.40;;;;;;6217268;23;20015;-86
2022/06/29 13:49:58;;;;;;;3.78;2.08;;;27.20;93.40;;;;;;6220000;23;20381;-88
2022/06/29 13:52:23;;;;;;;4.13;2.10;;;27.20;93.00;;;;;;6230218;23;20027;-87
2022/06/29 13:54:49;;;;;;;4.18;2.38;;;27.30;92.90;;;;;;6225484;23;20020;-92
2022/06/29 13:57:15;;;;;;;3.85;2.10;;;27.30;92.90;;;;;;6193894;23;20012;-91
2022/06/29 13:59:41;;;;;;;3.78;2.20;;;27.30;92.70;;;;;;6218567;23;20020;-88
2022/06/29 14:02:07;;;;;;;3.60;2.25;;;27.10;92.70;;;;;;6217016;23;20047;-87
2022/06/29 14:04:33;;;;;;;4.65;2.25;;;27.00;92.70;;;;;;6219057;23;20020;-90